createdAt,value
2018-02-14T00:00:48.814Z,31.77
2018-02-14T00:03:16.446Z,25.80
2018-02-14T00:05:44.036Z,38.97
2018-02-14T00:08:11.663Z,30.45
2018-02-14T00:10:39.882Z,44.72
2018-02-14T00:13:08.466Z,33.13
2018-02-14T00:15:36.057Z,32.20
2018-02-14T00:18:03.645Z,33.95
2018-02-14T00:20:31.228Z,31.58
2018-02-14T00:22:58.854Z,36.80
2018-02-14T00:25:26.438Z,34.60
2018-02-14T00:27:54.032Z,33.83
2018-02-14T00:30:22.479Z,29.75
2018-02-14T00:32:50.106Z,31.50
2018-02-14T00:35:17.731Z,31.83
2018-02-14T00:37:45.319Z,31.15
2018-02-14T00:40:12.975Z,38.83
2018-02-14T00:42:40.782Z,36.60
2018-02-14T00:45:08.412Z,38.85
2018-02-14T00:47:35.998Z,36.67
2018-02-14T00:50:03.626Z,41.20
2018-02-14T00:52:31.212Z,36.08
2018-02-14T00:54:58.847Z,30.95
2018-02-14T00:57:27.039Z,29.83
2018-02-14T00:59:54.728Z,44.17
2018-02-14T01:02:22.367Z,47.17
2018-02-14T01:04:49.998Z,38.58
2018-02-14T01:07:17.591Z,38.30
2018-02-14T01:09:45.179Z,34.88
2018-02-14T01:12:12.763Z,50.95
2018-02-14T01:14:40.355Z,42.20
2018-02-14T01:17:07.950Z,35.05
2018-02-14T01:19:37.352Z,37.95
2018-02-14T01:22:04.935Z,46.53
2018-02-14T01:24:32.561Z,38.97
2018-02-14T01:27:00.147Z,56.10
2018-02-14T01:29:27.800Z,46.53
2018-02-14T01:31:55.382Z,47.62
2018-02-14T01:34:22.966Z,34.00
2018-02-14T01:36:50.599Z,49.00
2018-02-14T01:39:18.187Z,58.15
2018-02-14T01:41:45.774Z,39.15
2018-02-14T01:44:13.368Z,35.80
2018-02-14T01:46:40.962Z,36.65
2018-02-14T01:49:08.585Z,40.70
2018-02-14T01:51:36.174Z,36.95
2018-02-14T01:54:03.876Z,36.60
2018-02-14T01:56:31.458Z,37.60
2018-02-14T01:59:00.354Z,40.47
2018-02-14T02:01:28.019Z,46.53
2018-02-14T02:03:55.664Z,42.75
2018-02-14T02:06:23.252Z,37.78
2018-02-14T02:08:50.875Z,44.92
2018-02-14T02:11:18.490Z,39.13
2018-02-14T02:13:46.080Z,32.95
2018-02-14T02:16:13.800Z,41.42
2018-02-14T02:18:41.390Z,33.55
2018-02-14T02:21:09.014Z,53.08
2018-02-14T02:23:36.642Z,34.55
2018-02-14T02:26:04.230Z,39.95
2018-02-14T02:28:31.819Z,51.63
2018-02-14T02:30:59.406Z,50.12
2018-02-14T02:33:26.990Z,40.88
2018-02-14T02:35:54.578Z,41.33
2018-02-14T02:38:22.179Z,44.63
2018-02-14T02:40:49.763Z,39.50
2018-02-14T02:43:17.432Z,42.88
2018-02-14T02:45:45.047Z,41.63
2018-02-14T02:48:13.617Z,32.95
2018-02-14T02:50:41.235Z,39.10
2018-02-14T02:53:08.823Z,30.23
2018-02-14T02:55:36.414Z,35.53
2018-02-14T02:58:04.727Z,35.33
2018-02-14T03:00:32.339Z,39.22
2018-02-14T03:03:00.120Z,34.97
2018-02-14T03:05:27.699Z,38.30
2018-02-14T03:07:55.318Z,32.38
2018-02-14T03:10:22.904Z,32.85
2018-02-14T03:12:50.492Z,30.98
2018-02-14T03:15:18.185Z,37.45
2018-02-14T03:17:45.770Z,28.70
2018-02-14T03:20:13.355Z,30.30
2018-02-14T03:22:40.974Z,30.10
2018-02-14T03:25:08.573Z,34.33
2018-02-14T03:27:36.241Z,35.72
2018-02-14T03:30:04.618Z,36.40
2018-02-14T03:32:32.923Z,36.25
2018-02-14T03:35:00.507Z,27.15
2018-02-14T03:37:28.868Z,37.55
2018-02-14T03:39:57.177Z,35.92
2018-02-14T03:42:24.787Z,34.63
2018-02-14T03:44:52.414Z,28.62
2018-02-14T03:47:20.003Z,34.85
2018-02-14T03:49:47.583Z,30.15
2018-02-14T03:52:16.025Z,34.03
2018-02-14T03:54:43.612Z,38.30
2018-02-14T03:57:11.251Z,34.13
2018-02-14T03:59:38.840Z,28.50
2018-02-14T04:02:06.422Z,33.42
2018-02-14T04:04:34.802Z,33.70
2018-02-14T04:07:03.244Z,30.52
2018-02-14T04:09:30.872Z,38.15
2018-02-14T04:11:58.460Z,36.80
2018-02-14T04:14:26.086Z,27.52
2018-02-14T04:16:53.673Z,35.00
2018-02-14T04:19:21.294Z,29.17
2018-02-14T04:21:48.878Z,33.30
2018-02-14T04:24:17.082Z,37.15
2018-02-14T04:26:44.667Z,44.08
2018-02-14T04:29:12.251Z,34.85
2018-02-14T04:31:40.594Z,40.85
2018-02-14T04:34:10.219Z,33.88
2018-02-14T04:36:37.836Z,36.97
2018-02-14T04:39:06.191Z,38.13
2018-02-14T04:41:34.524Z,31.58
2018-02-14T04:44:02.903Z,30.02
2018-02-14T04:46:31.325Z,44.00
2018-02-14T04:48:59.690Z,41.85
2018-02-14T04:51:28.090Z,31.55
2018-02-14T04:53:56.641Z,40.30
2018-02-14T04:56:24.938Z,35.22
2018-02-14T04:58:53.298Z,35.85
2018-02-14T05:01:21.822Z,52.90
2018-02-14T05:03:50.054Z,36.35
2018-02-14T05:06:17.690Z,39.75
2018-02-14T05:08:46.211Z,40.58
2018-02-14T05:11:13.795Z,40.85
2018-02-14T05:13:42.319Z,34.47
2018-02-14T05:16:10.670Z,30.65
2018-02-14T05:18:39.093Z,51.53
2018-02-14T05:21:06.714Z,35.38
2018-02-14T05:23:34.343Z,50.53
2018-02-14T05:26:01.967Z,47.35
2018-02-14T05:28:29.591Z,39.65
2018-02-14T05:30:57.179Z,31.92
2018-02-14T05:33:24.798Z,42.55
2018-02-14T05:35:52.383Z,36.00
2018-02-14T05:38:20.570Z,37.75
2018-02-14T05:40:48.967Z,34.40
2018-02-14T05:43:16.558Z,34.53
2018-02-14T05:45:44.180Z,38.72
2018-02-14T05:48:11.767Z,38.63
2018-02-14T05:50:39.479Z,42.33
2018-02-14T05:53:07.335Z,44.78
2018-02-14T05:55:35.063Z,36.55
2018-02-14T05:58:03.675Z,40.45
2018-02-14T06:00:31.310Z,47.88
2018-02-14T06:02:58.894Z,44.75
2018-02-14T06:05:26.587Z,40.72
2018-02-14T06:07:54.179Z,31.60
2018-02-14T06:10:21.800Z,44.63
2018-02-14T06:12:49.387Z,49.85
2018-02-14T06:15:17.934Z,49.20
2018-02-14T06:17:45.566Z,66.82
2018-02-14T06:20:13.228Z,57.33
2018-02-14T06:22:40.823Z,57.03
2018-02-14T06:25:09.184Z,41.78
2018-02-14T06:27:36.820Z,47.78
2018-02-14T06:30:12.979Z,43.78
2018-02-14T06:32:40.596Z,56.45
2018-02-14T06:35:08.182Z,46.88
2018-02-14T06:37:35.881Z,47.55
2018-02-14T06:40:04.364Z,53.40
2018-02-14T06:42:31.989Z,57.33
2018-02-14T06:45:00.531Z,56.50
2018-02-14T06:47:28.151Z,54.42
2018-02-14T06:49:55.740Z,36.50
2018-02-14T06:52:23.374Z,49.53
2018-02-14T06:54:51.814Z,39.83
2018-02-14T06:57:20.107Z,40.28
2018-02-14T06:59:48.476Z,38.88
2018-02-14T07:02:16.072Z,46.25
2018-02-14T07:04:43.661Z,43.78
2018-02-14T07:07:11.249Z,42.05
2018-02-14T07:09:38.836Z,44.67
2018-02-14T07:12:07.210Z,39.53
2018-02-14T07:14:35.579Z,52.53
2018-02-14T07:17:03.172Z,47.33
2018-02-14T07:19:30.766Z,51.88
2018-02-14T07:21:58.352Z,41.85
2018-02-14T07:24:25.940Z,45.22
2018-02-14T07:26:53.527Z,57.08
2018-02-14T07:29:22.047Z,45.20
2018-02-14T07:31:49.634Z,50.83
2018-02-14T07:34:17.236Z,54.22
2018-02-14T07:36:45.650Z,49.13
2018-02-14T07:39:13.949Z,58.22
2018-02-14T07:41:42.342Z,55.92
2018-02-14T07:44:10.784Z,47.08
2018-02-14T07:46:38.414Z,52.83
2018-02-14T07:49:06.016Z,46.80
2018-02-14T07:51:33.712Z,43.08
2018-02-14T07:54:01.331Z,61.50
2018-02-14T07:56:28.923Z,62.15
2018-02-14T07:58:57.438Z,52.10
2018-02-14T08:01:25.621Z,47.95
2018-02-14T08:03:53.263Z,42.38
2018-02-14T08:06:21.460Z,62.80
2018-02-14T08:08:49.090Z,59.20
2018-02-14T08:11:17.643Z,58.97
2018-02-14T08:13:45.226Z,47.92
2018-02-14T08:16:13.671Z,55.53
2018-02-14T08:18:41.256Z,45.58
2018-02-14T08:21:08.846Z,47.20
2018-02-14T08:23:36.521Z,67.70
2018-02-14T08:26:04.977Z,55.78
2018-02-14T08:28:34.087Z,45.88
2018-02-14T08:31:02.356Z,43.55
2018-02-14T08:33:30.794Z,57.60
2018-02-14T08:35:58.663Z,48.05
2018-02-14T08:38:26.346Z,52.78
2018-02-14T08:40:53.946Z,50.25
2018-02-14T08:43:21.531Z,63.25
2018-02-14T08:45:49.128Z,58.35
2018-02-14T08:48:16.760Z,52.85
2018-02-14T08:50:44.351Z,47.78
2018-02-14T08:53:11.943Z,51.60
2018-02-14T08:55:40.366Z,62.13
2018-02-14T08:58:07.963Z,57.97
2018-02-14T09:00:36.391Z,53.20
2018-02-14T09:03:04.012Z,57.00
2018-02-14T09:05:31.613Z,59.10
2018-02-14T09:07:59.215Z,50.67
2018-02-14T09:10:26.847Z,57.65
2018-02-14T09:12:54.444Z,61.95
2018-02-14T09:15:22.038Z,55.20
2018-02-14T09:17:49.634Z,66.32
2018-02-14T09:20:17.406Z,60.35
2018-02-14T09:22:44.989Z,63.00
2018-02-14T09:25:13.288Z,63.95
2018-02-14T09:27:40.899Z,73.90
2018-02-14T09:30:09.089Z,57.70
2018-02-14T09:32:36.674Z,70.40
2018-02-14T09:35:04.265Z,69.18
2018-02-14T09:37:31.925Z,80.30
2018-02-14T09:39:59.568Z,97.32
2018-02-14T09:42:27.929Z,78.18
2018-02-14T09:44:56.483Z,79.60
2018-02-14T09:47:24.059Z,95.17
2018-02-14T09:49:51.652Z,83.18
2018-02-14T09:52:19.264Z,86.30
2018-02-14T09:54:47.736Z,95.07
2018-02-14T09:57:15.313Z,96.57
2018-02-14T09:59:43.904Z,88.80
2018-02-14T10:02:11.485Z,77.07
2018-02-14T10:04:39.067Z,76.47
2018-02-14T10:07:06.790Z,130.67
2018-02-14T10:09:34.369Z,79.27
2018-02-14T10:12:02.008Z,71.50
2018-02-14T10:14:29.590Z,67.10
2018-02-14T10:16:57.167Z,68.80
2018-02-14T10:19:24.750Z,72.33
2018-02-14T10:21:52.385Z,78.50
2018-02-14T10:24:19.966Z,74.67
2018-02-14T10:26:47.551Z,64.53
2018-02-14T10:29:15.134Z,71.50
2018-02-14T10:31:42.718Z,70.20
2018-02-14T10:34:10.298Z,77.43
2018-02-14T10:36:37.869Z,67.53
2018-02-14T10:39:06.350Z,63.73
2018-02-14T10:41:33.931Z,61.20
2018-02-14T10:44:01.509Z,63.73
2018-02-14T10:46:29.096Z,83.80
2018-02-14T10:48:56.674Z,58.50
2018-02-14T10:51:24.259Z,64.77
2018-02-14T10:53:51.883Z,63.37
2018-02-14T10:56:19.463Z,53.30
2018-02-14T10:58:47.039Z,54.60
2018-02-14T11:01:20.050Z,56.57
2018-02-14T11:03:51.414Z,56.77
2018-02-14T11:06:18.990Z,52.43
2018-02-14T11:08:46.567Z,49.63
2018-02-14T11:11:14.151Z,53.07
2018-02-14T11:13:41.737Z,49.83
2018-02-14T11:16:09.348Z,65.37
2018-02-14T11:18:36.935Z,48.23
2018-02-14T11:21:04.510Z,54.77
2018-02-14T11:23:32.094Z,50.83
2018-02-14T11:25:59.677Z,46.67
2018-02-14T11:28:28.162Z,44.90
2018-02-14T11:30:55.739Z,43.93
2018-02-14T11:33:23.315Z,45.20
2018-02-14T11:35:50.891Z,42.83
2018-02-14T11:38:18.472Z,36.63
2018-02-14T11:40:46.055Z,43.40
2018-02-14T11:43:13.781Z,33.40
2018-02-14T11:45:41.394Z,36.17
2018-02-14T11:48:09.946Z,38.10
2018-02-14T11:50:38.372Z,35.93
2018-02-14T11:53:05.986Z,33.27
2018-02-14T11:55:33.565Z,51.43
2018-02-14T11:58:01.150Z,30.87
2018-02-14T12:00:28.816Z,34.40
2018-02-14T12:02:56.395Z,41.13
2018-02-14T12:05:24.006Z,52.03
2018-02-14T12:07:51.579Z,45.63
2018-02-14T12:10:19.246Z,38.97
2018-02-14T12:12:46.826Z,35.63
2018-02-14T12:15:14.406Z,35.37
2018-02-14T12:17:41.978Z,35.60
2018-02-14T12:20:09.558Z,35.20
2018-02-14T12:22:37.932Z,38.60
2018-02-14T12:25:05.516Z,36.57
2018-02-14T12:27:33.096Z,32.20
2018-02-14T12:30:01.592Z,31.63
2018-02-14T12:32:29.170Z,39.57
2018-02-14T12:34:56.743Z,27.73
2018-02-14T12:37:25.238Z,37.10
2018-02-14T12:39:52.823Z,32.07
2018-02-14T12:42:20.402Z,37.37
2018-02-14T12:44:47.983Z,36.67
2018-02-14T12:47:15.559Z,35.30
2018-02-14T12:49:43.291Z,34.77
2018-02-14T12:52:11.683Z,28.33
2018-02-14T12:54:39.270Z,34.77
2018-02-14T12:57:06.851Z,33.90
2018-02-14T12:59:35.382Z,27.93
2018-02-14T13:02:03.784Z,26.40
2018-02-14T13:04:32.282Z,28.17
2018-02-14T13:06:59.867Z,32.93
2018-02-14T13:09:27.452Z,34.67
2018-02-14T13:11:55.810Z,28.50
2018-02-14T13:14:24.446Z,20.00
2018-02-14T13:16:52.022Z,26.67
2018-02-14T13:19:20.384Z,35.03
2018-02-14T13:21:47.958Z,28.77
2018-02-14T13:24:16.365Z,31.50
2018-02-14T13:26:44.739Z,35.50
2018-02-14T13:29:13.247Z,34.47
2018-02-14T13:31:41.615Z,36.00
2018-02-14T13:34:09.270Z,30.47
2018-02-14T13:36:36.857Z,28.30
2018-02-14T13:39:04.443Z,27.00
2018-02-14T13:41:32.019Z,41.47
2018-02-14T13:43:59.647Z,40.33
2018-02-14T13:46:27.227Z,34.70
2018-02-14T13:48:54.801Z,24.73
2018-02-14T13:51:22.374Z,32.77
2018-02-14T13:53:49.957Z,32.80
2018-02-14T13:56:17.538Z,37.23
2018-02-14T13:58:45.119Z,32.03
2018-02-14T14:01:12.696Z,35.20
2018-02-14T14:03:40.273Z,28.10
2018-02-14T14:06:07.847Z,30.33
2018-02-14T14:08:35.432Z,27.90
2018-02-14T14:11:03.067Z,30.83
2018-02-14T14:13:30.624Z,28.23
2018-02-14T14:15:58.982Z,29.03
2018-02-14T14:18:26.558Z,30.27
2018-02-14T14:20:55.022Z,26.27
2018-02-14T14:23:22.643Z,29.47
2018-02-14T14:25:50.221Z,32.60
2018-02-14T14:28:17.801Z,30.57
2018-02-14T14:30:45.384Z,23.40
2018-02-14T14:33:12.990Z,23.27
2018-02-14T14:35:40.572Z,29.77
2018-02-14T14:38:08.167Z,45.60
2018-02-14T14:40:36.658Z,48.73
2018-02-14T14:43:04.311Z,43.73
2018-02-14T14:45:31.888Z,46.80
2018-02-14T14:47:59.466Z,55.53
2018-02-14T14:50:27.082Z,53.07
2018-02-14T14:52:54.658Z,56.33
2018-02-14T14:55:22.230Z,59.73
2018-02-14T14:57:49.843Z,61.20
2018-02-14T15:00:17.443Z,60.53
2018-02-14T15:02:45.026Z,53.73
2018-02-14T15:05:12.610Z,65.43
2018-02-14T15:07:40.191Z,56.53
2018-02-14T15:10:07.780Z,57.80
2018-02-14T15:12:35.396Z,78.80
2018-02-14T15:15:03.984Z,62.73
2018-02-14T15:17:31.618Z,61.33
2018-02-14T15:19:59.203Z,70.77
2018-02-14T15:22:26.778Z,65.73
2018-02-14T15:24:54.361Z,59.67
2018-02-14T15:27:21.996Z,62.23
2018-02-14T15:29:50.584Z,63.07
2018-02-14T15:32:18.162Z,66.63
2018-02-14T15:34:45.751Z,65.57
2018-02-14T15:37:13.331Z,66.70
2018-02-14T15:39:41.971Z,59.37
2018-02-14T15:42:09.554Z,63.07
2018-02-14T15:44:37.955Z,62.73
2018-02-14T15:47:05.536Z,70.13
2018-02-14T15:49:33.939Z,66.10
2018-02-14T15:52:01.522Z,70.23
2018-02-14T15:54:29.139Z,61.40
2018-02-14T15:56:56.725Z,75.40
2018-02-14T15:59:24.346Z,70.57
2018-02-14T16:01:52.733Z,64.30
2018-02-14T16:04:20.311Z,66.77
2018-02-14T16:06:47.900Z,63.13
2018-02-14T16:09:15.487Z,59.93
2018-02-14T16:11:43.062Z,64.77
2018-02-14T16:14:10.639Z,59.80
2018-02-14T16:16:39.303Z,62.07
2018-02-14T16:19:06.975Z,59.77
2018-02-14T16:21:34.563Z,65.37
2018-02-14T16:24:02.990Z,64.40
2018-02-14T16:26:31.355Z,61.23
2018-02-14T16:28:58.979Z,72.33
2018-02-14T16:31:27.250Z,77.67
2018-02-14T16:33:55.524Z,61.97
2018-02-14T16:36:23.791Z,73.03
2018-02-14T16:38:52.286Z,71.20
2018-02-14T16:41:20.559Z,71.20
2018-02-14T16:43:48.920Z,63.23
2018-02-14T16:46:17.296Z,75.18
2018-02-14T16:48:45.679Z,72.10
2018-02-14T16:51:13.266Z,63.77
2018-02-14T16:53:40.853Z,70.45
2018-02-14T16:56:09.080Z,75.68
2018-02-14T16:58:37.448Z,72.90
2018-02-14T17:01:05.091Z,79.72
2018-02-14T17:03:32.681Z,83.00
2018-02-14T17:06:00.448Z,85.32
2018-02-14T17:08:28.042Z,84.13
2018-02-14T17:10:55.691Z,85.38
2018-02-14T17:13:23.267Z,85.07
2018-02-14T17:15:51.628Z,72.77
2018-02-14T17:18:19.214Z,90.20
2018-02-14T17:20:46.803Z,78.37
2018-02-14T17:23:14.400Z,97.35
2018-02-14T17:25:42.026Z,88.90
2018-02-14T17:28:10.464Z,84.43
2018-02-14T17:30:38.066Z,88.87
2018-02-14T17:33:07.023Z,86.82
2018-02-14T17:35:35.210Z,83.68
2018-02-14T17:38:02.805Z,89.25
2018-02-14T17:40:30.440Z,83.45
2018-02-14T17:42:58.950Z,95.18
2018-02-14T17:45:26.534Z,91.35
2018-02-14T17:47:54.166Z,107.03
2018-02-14T17:50:21.759Z,90.80
2018-02-14T17:52:49.407Z,99.82
2018-02-14T17:55:17.337Z,94.65
2018-02-14T17:57:44.926Z,117.97
2018-02-14T18:00:17.074Z,106.12
2018-02-14T18:02:44.762Z,94.05
2018-02-14T18:05:12.413Z,108.30
2018-02-14T18:07:40.045Z,112.68
2018-02-14T18:10:07.634Z,123.97
2018-02-14T18:12:35.299Z,110.55
2018-02-14T18:15:02.887Z,111.12
2018-02-14T18:17:31.300Z,105.85
2018-02-14T18:19:58.882Z,123.62
2018-02-14T18:22:26.479Z,114.12
2018-02-14T18:24:54.112Z,104.70
2018-02-14T18:27:21.703Z,116.03
2018-02-14T18:29:50.542Z,105.22
2018-02-14T18:32:18.129Z,115.93
2018-02-14T18:34:45.719Z,111.47
2018-02-14T18:37:13.379Z,100.12
2018-02-14T18:39:40.983Z,115.07
2018-02-14T18:42:08.626Z,126.03
2018-02-14T18:44:36.232Z,123.60
2018-02-14T18:47:03.822Z,129.40
2018-02-14T18:49:34.263Z,112.43
2018-02-14T18:52:02.446Z,124.07
2018-02-14T18:54:30.043Z,109.57
2018-02-14T18:56:57.665Z,134.63
2018-02-14T18:59:25.283Z,108.95
2018-02-14T19:01:52.865Z,123.70
2018-02-14T19:04:20.521Z,109.30
2018-02-14T19:06:48.116Z,110.97
2018-02-14T19:09:15.710Z,109.65
2018-02-14T19:11:45.487Z,114.37
2018-02-14T19:14:16.771Z,114.45
2018-02-14T19:16:44.414Z,116.93
2018-02-14T19:19:12.835Z,129.40
2018-02-14T19:21:40.430Z,124.32
2018-02-14T19:24:08.070Z,128.00
2018-02-14T19:26:35.667Z,125.60
2018-02-14T19:29:03.301Z,125.62
2018-02-14T19:31:30.959Z,113.22
2018-02-14T19:33:58.593Z,105.63
2018-02-14T19:36:26.186Z,117.18
2018-02-14T19:38:53.779Z,103.07
2018-02-14T19:41:21.411Z,127.20
2018-02-14T19:43:49.936Z,124.90
2018-02-14T19:46:17.602Z,100.70
2018-02-14T19:48:45.242Z,109.87
2018-02-14T19:51:12.840Z,105.03
2018-02-14T19:53:40.438Z,137.95
2018-02-14T19:56:08.164Z,130.05
2018-02-14T19:58:35.858Z,124.03
2018-02-14T20:01:04.460Z,132.85
2018-02-14T20:03:32.050Z,129.98
2018-02-14T20:05:59.684Z,121.25
2018-02-14T20:08:27.280Z,124.15
2018-02-14T20:10:54.903Z,121.60
2018-02-14T20:13:22.518Z,96.80
2018-02-14T20:15:50.735Z,108.63
2018-02-14T20:18:18.335Z,115.70
2018-02-14T20:20:46.633Z,117.10
2018-02-14T20:23:15.091Z,113.35
2018-02-14T20:25:43.456Z,116.75
2018-02-14T20:28:11.819Z,127.75
2018-02-14T20:30:40.191Z,97.47
2018-02-14T20:33:07.936Z,129.25
2018-02-14T20:35:35.584Z,106.60
2018-02-14T20:38:03.390Z,116.30
2018-02-14T20:40:30.986Z,111.88
2018-02-14T20:42:58.894Z,116.55
2018-02-14T20:45:27.324Z,115.18
2018-02-14T20:47:54.962Z,123.25
2018-02-14T20:50:22.554Z,118.68
2018-02-14T20:52:50.177Z,98.65
2018-02-14T20:55:17.774Z,99.40
2018-02-14T20:57:45.374Z,121.03
2018-02-14T21:00:13.329Z,99.70
2018-02-14T21:02:40.922Z,113.45
2018-02-14T21:05:08.510Z,101.15
2018-02-14T21:07:36.103Z,115.78
2018-02-14T21:10:03.751Z,126.90
2018-02-14T21:12:31.344Z,113.25
2018-02-14T21:14:58.941Z,141.68
2018-02-14T21:17:26.574Z,122.15
2018-02-14T21:19:54.171Z,115.37
2018-02-14T21:22:21.761Z,120.25
2018-02-14T21:24:50.175Z,108.10
2018-02-14T21:27:18.569Z,106.20
2018-02-14T21:29:46.206Z,125.20
2018-02-14T21:32:13.803Z,115.80
2018-02-14T21:34:42.250Z,112.78
2018-02-14T21:37:10.633Z,137.48
2018-02-14T21:39:38.226Z,113.93
2018-02-14T21:42:06.855Z,121.13
2018-02-14T21:44:34.449Z,123.35
2018-02-14T21:47:02.048Z,112.60
2018-02-14T21:49:30.444Z,138.07
2018-02-14T21:51:58.678Z,120.10
2018-02-14T21:54:27.054Z,129.32
2018-02-14T21:56:55.427Z,121.95
2018-02-14T21:59:23.857Z,116.75
2018-02-14T22:01:51.443Z,112.12
2018-02-14T22:04:19.044Z,117.68
2018-02-14T22:06:46.642Z,132.65
2018-02-14T22:09:14.234Z,113.70
2018-02-14T22:11:41.848Z,116.93
2018-02-14T22:14:10.466Z,112.60
2018-02-14T22:16:38.055Z,117.70
2018-02-14T22:19:05.683Z,121.55
2018-02-14T22:21:33.276Z,136.57
2018-02-14T22:24:00.907Z,104.22
2018-02-14T22:26:28.556Z,102.32
2018-02-14T22:28:57.633Z,126.87
2018-02-14T22:31:25.231Z,100.32
2018-02-14T22:33:52.821Z,107.07
2018-02-14T22:36:20.442Z,118.93
2018-02-14T22:38:48.958Z,130.90
2018-02-14T22:41:17.500Z,108.95
2018-02-14T22:43:45.806Z,128.77
2018-02-14T22:46:13.435Z,107.55
2018-02-14T22:48:41.855Z,128.50
2018-02-14T22:51:09.505Z,123.57
2018-02-14T22:53:37.166Z,121.22
2018-02-14T22:56:04.787Z,118.53
2018-02-14T22:58:32.420Z,135.05
2018-02-14T23:01:00.017Z,130.05
2018-02-14T23:03:28.495Z,127.28
2018-02-14T23:05:56.906Z,132.37
2018-02-14T23:08:25.395Z,132.52
2018-02-14T23:10:53.061Z,123.82
2018-02-14T23:13:20.656Z,139.60
2018-02-14T23:15:48.307Z,125.28
2018-02-14T23:18:15.931Z,139.25
2018-02-14T23:20:44.457Z,136.43
2018-02-14T23:23:12.847Z,145.40
2018-02-14T23:25:41.267Z,154.43
2018-02-14T23:28:09.759Z,134.10
2018-02-14T23:30:37.470Z,136.20
2018-02-14T23:33:05.058Z,176.63
2018-02-14T23:35:33.531Z,179.75
2018-02-14T23:38:02.019Z,152.45
2018-02-14T23:40:30.431Z,187.55
2018-02-14T23:42:58.031Z,196.37
2018-02-14T23:45:25.680Z,207.70
2018-02-14T23:47:54.198Z,190.77
2018-02-14T23:50:21.792Z,178.07
2018-02-14T23:52:49.987Z,200.77
2018-02-14T23:55:17.621Z,187.25
2018-02-14T23:57:46.047Z,203.88
